sensor_id;sensor_type;location;lat;lon;timestamp;P1;durP1;ratioP1;P2;durP2;ratioP2
83715;SDS011;73698;51.138;6.950;2024-01-11T00:01:17;34.88;;;13.00;;
83715;SDS011;73698;51.138;6.950;2024-01-11T00:03:43;25.80;;;11.40;;
83715;SDS011;73698;51.138;6.950;2024-01-11T00:06:08;25.67;;;12.20;;
83715;SDS011;73698;51.138;6.950;2024-01-11T00:08:34;27.35;;;13.40;;
83715;SDS011;73698;51.138;6.950;2024-01-11T00:10:59;26.65;;;12.57;;
83715;SDS011;73698;51.138;6.950;2024-01-11T00:13:25;38.03;;;14.68;;
83715;SDS011;73698;51.138;6.950;2024-01-11T00:15:52;30.30;;;11.63;;
83715;SDS011;73698;51.138;6.950;2024-01-11T00:18:21;29.92;;;12.57;;
83715;SDS011;73698;51.138;6.950;2024-01-11T00:20:46;26.75;;;13.73;;
83715;SDS011;73698;51.138;6.950;2024-01-11T00:23:12;29.02;;;11.15;;
83715;SDS011;73698;51.138;6.950;2024-01-11T00:25:37;31.02;;;12.50;;
83715;SDS011;73698;51.138;6.950;2024-01-11T00:28:03;28.33;;;11.95;;
83715;SDS011;73698;51.138;6.950;2024-01-11T00:30:28;24.35;;;11.07;;
83715;SDS011;73698;51.138;6.950;2024-01-11T00:32:54;19.75;;;10.15;;
83715;SDS011;73698;51.138;6.950;2024-01-11T00:35:20;31.60;;;13.70;;
83715;SDS011;73698;51.138;6.950;2024-01-11T00:37:45;26.42;;;11.55;;
83715;SDS011;73698;51.138;6.950;2024-01-11T00:40:11;26.08;;;11.80;;
83715;SDS011;73698;51.138;6.950;2024-01-11T00:42:36;25.40;;;12.38;;
83715;SDS011;73698;51.138;6.950;2024-01-11T00:45:02;25.42;;;12.05;;
83715;SDS011;73698;51.138;6.950;2024-01-11T00:58:15;23.08;;;10.85;;
83715;SDS011;73698;51.138;6.950;2024-01-11T01:00:40;25.42;;;12.10;;
83715;SDS011;73698;51.138;6.950;2024-01-11T01:03:05;22.38;;;11.07;;
83715;SDS011;73698;51.138;6.950;2024-01-11T01:05:31;21.65;;;10.35;;
83715;SDS011;73698;51.138;6.950;2024-01-11T01:07:57;29.55;;;11.02;;
83715;SDS011;73698;51.138;6.950;2024-01-11T01:10:22;32.25;;;11.27;;
83715;SDS011;73698;51.138;6.950;2024-01-11T01:12:48;32.28;;;14.38;;
83715;SDS011;73698;51.138;6.950;2024-01-11T01:15:14;25.02;;;12.65;;
83715;SDS011;73698;51.138;6.950;2024-01-11T01:17:39;25.15;;;11.20;;
83715;SDS011;73698;51.138;6.950;2024-01-11T01:20:05;29.92;;;12.43;;
83715;SDS011;73698;51.138;6.950;2024-01-11T01:22:31;20.85;;;9.48;;
83715;SDS011;73698;51.138;6.950;2024-01-11T01:24:56;25.58;;;10.88;;
83715;SDS011;73698;51.138;6.950;2024-01-11T01:27:21;30.48;;;11.77;;
83715;SDS011;73698;51.138;6.950;2024-01-11T01:29:47;27.52;;;11.43;;
83715;SDS011;73698;51.138;6.950;2024-01-11T01:32:12;24.65;;;10.80;;
83715;SDS011;73698;51.138;6.950;2024-01-11T01:34:38;30.45;;;9.73;;
83715;SDS011;73698;51.138;6.950;2024-01-11T01:37:03;27.05;;;12.20;;
83715;SDS011;73698;51.138;6.950;2024-01-11T01:39:28;23.60;;;10.90;;
83715;SDS011;73698;51.138;6.950;2024-01-11T01:41:54;28.90;;;12.00;;
83715;SDS011;73698;51.138;6.950;2024-01-11T01:44:19;32.05;;;11.85;;
83715;SDS011;73698;51.138;6.950;2024-01-11T01:46:45;26.83;;;12.15;;
83715;SDS011;73698;51.138;6.950;2024-01-11T01:49:10;25.80;;;10.32;;
83715;SDS011;73698;51.138;6.950;2024-01-11T01:51:37;22.90;;;10.73;;
83715;SDS011;73698;51.138;6.950;2024-01-11T01:54:03;31.40;;;11.68;;
83715;SDS011;73698;51.138;6.950;2024-01-11T01:56:29;22.63;;;11.20;;
83715;SDS011;73698;51.138;6.950;2024-01-11T01:58:54;25.75;;;11.35;;
83715;SDS011;73698;51.138;6.950;2024-01-11T02:01:20;31.40;;;10.93;;
83715;SDS011;73698;51.138;6.950;2024-01-11T02:03:49;28.65;;;11.60;;
83715;SDS011;73698;51.138;6.950;2024-01-11T02:06:16;27.30;;;11.00;;
83715;SDS011;73698;51.138;6.950;2024-01-11T02:08:43;29.35;;;10.18;;
83715;SDS011;73698;51.138;6.950;2024-01-11T02:11:10;21.20;;;8.82;;
83715;SDS011;73698;51.138;6.950;2024-01-11T02:13:36;25.35;;;9.73;;
83715;SDS011;73698;51.138;6.950;2024-01-11T02:16:02;25.38;;;11.95;;
83715;SDS011;73698;51.138;6.950;2024-01-11T02:18:27;28.27;;;11.52;;
83715;SDS011;73698;51.138;6.950;2024-01-11T02:20:53;29.35;;;11.50;;
83715;SDS011;73698;51.138;6.950;2024-01-11T02:23:19;19.33;;;9.85;;
83715;SDS011;73698;51.138;6.950;2024-01-11T02:25:49;15.77;;;8.95;;
83715;SDS011;73698;51.138;6.950;2024-01-11T02:28:14;21.35;;;10.50;;
83715;SDS011;73698;51.138;6.950;2024-01-11T02:30:40;19.23;;;9.27;;
83715;SDS011;73698;51.138;6.950;2024-01-11T02:33:07;16.35;;;7.75;;
83715;SDS011;73698;51.138;6.950;2024-01-11T02:35:33;25.67;;;11.07;;
83715;SDS011;73698;51.138;6.950;2024-01-11T02:38:00;22.85;;;10.27;;
83715;SDS011;73698;51.138;6.950;2024-01-11T02:40:26;24.25;;;10.48;;
83715;SDS011;73698;51.138;6.950;2024-01-11T02:42:51;21.70;;;9.98;;
83715;SDS011;73698;51.138;6.950;2024-01-11T02:45:17;23.15;;;9.55;;
83715;SDS011;73698;51.138;6.950;2024-01-11T02:47:43;24.27;;;11.05;;
83715;SDS011;73698;51.138;6.950;2024-01-11T02:50:09;22.35;;;11.23;;
83715;SDS011;73698;51.138;6.950;2024-01-11T02:52:36;23.50;;;9.55;;
83715;SDS011;73698;51.138;6.950;2024-01-11T02:55:02;24.35;;;10.57;;
83715;SDS011;73698;51.138;6.950;2024-01-11T02:57:28;21.20;;;10.25;;
83715;SDS011;73698;51.138;6.950;2024-01-11T02:59:56;19.00;;;11.13;;
83715;SDS011;73698;51.138;6.950;2024-01-11T03:02:22;18.58;;;9.68;;
83715;SDS011;73698;51.138;6.950;2024-01-11T03:04:47;25.70;;;10.43;;
83715;SDS011;73698;51.138;6.950;2024-01-11T03:07:13;25.52;;;11.02;;
83715;SDS011;73698;51.138;6.950;2024-01-11T03:09:38;19.50;;;7.78;;
83715;SDS011;73698;51.138;6.950;2024-01-11T03:12:04;20.33;;;9.90;;
83715;SDS011;73698;51.138;6.950;2024-01-11T03:14:31;32.80;;;10.48;;
83715;SDS011;73698;51.138;6.950;2024-01-11T03:16:56;22.58;;;8.48;;
83715;SDS011;73698;51.138;6.950;2024-01-11T03:19:22;21.30;;;7.55;;
83715;SDS011;73698;51.138;6.950;2024-01-11T03:21:47;15.43;;;8.73;;
83715;SDS011;73698;51.138;6.950;2024-01-11T03:24:13;20.42;;;9.55;;
83715;SDS011;73698;51.138;6.950;2024-01-11T03:26:38;21.80;;;10.43;;
83715;SDS011;73698;51.138;6.950;2024-01-11T03:29:04;20.40;;;10.60;;
83715;SDS011;73698;51.138;6.950;2024-01-11T03:31:30;19.45;;;9.93;;
83715;SDS011;73698;51.138;6.950;2024-01-11T03:33:56;13.90;;;6.82;;
83715;SDS011;73698;51.138;6.950;2024-01-11T03:36:25;19.15;;;8.95;;
83715;SDS011;73698;51.138;6.950;2024-01-11T03:38:50;23.13;;;8.05;;
83715;SDS011;73698;51.138;6.950;2024-01-11T03:41:16;23.52;;;9.82;;
83715;SDS011;73698;51.138;6.950;2024-01-11T03:43:41;17.73;;;9.07;;
83715;SDS011;73698;51.138;6.950;2024-01-11T03:46:07;31.90;;;11.20;;
83715;SDS011;73698;51.138;6.950;2024-01-11T03:48:32;17.23;;;8.55;;
83715;SDS011;73698;51.138;6.950;2024-01-11T03:51:00;23.67;;;9.90;;
83715;SDS011;73698;51.138;6.950;2024-01-11T03:53:26;20.30;;;8.68;;
83715;SDS011;73698;51.138;6.950;2024-01-11T03:55:51;16.48;;;7.15;;
83715;SDS011;73698;51.138;6.950;2024-01-11T03:58:17;24.42;;;9.80;;
83715;SDS011;73698;51.138;6.950;2024-01-11T04:00:42;13.43;;;7.28;;
83715;SDS011;73698;51.138;6.950;2024-01-11T04:03:07;24.40;;;7.18;;
83715;SDS011;73698;51.138;6.950;2024-01-11T04:05:33;21.50;;;9.02;;
83715;SDS011;73698;51.138;6.950;2024-01-11T04:07:58;19.13;;;9.55;;
83715;SDS011;73698;51.138;6.950;2024-01-11T04:10:23;20.02;;;9.05;;
83715;SDS011;73698;51.138;6.950;2024-01-11T04:12:49;24.63;;;9.68;;
83715;SDS011;73698;51.138;6.950;2024-01-11T04:15:14;19.35;;;9.77;;
83715;SDS011;73698;51.138;6.950;2024-01-11T04:17:40;27.23;;;8.88;;
83715;SDS011;73698;51.138;6.950;2024-01-11T04:20:06;17.60;;;6.95;;
83715;SDS011;73698;51.138;6.950;2024-01-11T04:22:33;21.48;;;10.68;;
83715;SDS011;73698;51.138;6.950;2024-01-11T04:24:59;16.52;;;9.95;;
83715;SDS011;73698;51.138;6.950;2024-01-11T04:27:25;18.30;;;9.23;;
83715;SDS011;73698;51.138;6.950;2024-01-11T04:29:50;19.85;;;8.68;;
83715;SDS011;73698;51.138;6.950;2024-01-11T04:32:16;21.70;;;8.65;;
83715;SDS011;73698;51.138;6.950;2024-01-11T04:34:41;22.30;;;10.60;;
83715;SDS011;73698;51.138;6.950;2024-01-11T04:37:06;21.75;;;8.50;;
83715;SDS011;73698;51.138;6.950;2024-01-11T04:39:32;20.15;;;7.93;;
83715;SDS011;73698;51.138;6.950;2024-01-11T04:41:58;16.67;;;8.27;;
83715;SDS011;73698;51.138;6.950;2024-01-11T04:44:24;17.70;;;8.57;;
83715;SDS011;73698;51.138;6.950;2024-01-11T04:46:52;15.13;;;7.80;;
83715;SDS011;73698;51.138;6.950;2024-01-11T04:49:17;21.52;;;7.88;;
83715;SDS011;73698;51.138;6.950;2024-01-11T04:51:43;21.25;;;8.50;;
83715;SDS011;73698;51.138;6.950;2024-01-11T04:54:08;15.40;;;7.88;;
83715;SDS011;73698;51.138;6.950;2024-01-11T04:56:34;13.25;;;6.10;;
83715;SDS011;73698;51.138;6.950;2024-01-11T04:58:59;18.75;;;8.38;;
83715;SDS011;73698;51.138;6.950;2024-01-11T05:01:25;14.50;;;8.48;;
83715;SDS011;73698;51.138;6.950;2024-01-11T05:03:50;18.02;;;7.60;;
83715;SDS011;73698;51.138;6.950;2024-01-11T05:06:16;23.90;;;6.53;;
83715;SDS011;73698;51.138;6.950;2024-01-11T05:08:49;17.92;;;7.07;;
83715;SDS011;73698;51.138;6.950;2024-01-11T05:11:17;20.23;;;7.30;;
83715;SDS011;73698;51.138;6.950;2024-01-11T05:13:43;14.63;;;7.50;;
83715;SDS011;73698;51.138;6.950;2024-01-11T05:16:30;22.38;;;8.20;;
83715;SDS011;73698;51.138;6.950;2024-01-11T05:18:56;24.55;;;9.07;;
83715;SDS011;73698;51.138;6.950;2024-01-11T05:21:22;12.68;;;6.63;;
83715;SDS011;73698;51.138;6.950;2024-01-11T05:23:49;26.13;;;9.40;;
83715;SDS011;73698;51.138;6.950;2024-01-11T05:26:15;19.48;;;9.00;;
83715;SDS011;73698;51.138;6.950;2024-01-11T05:28:41;18.15;;;7.22;;
83715;SDS011;73698;51.138;6.950;2024-01-11T05:31:08;22.33;;;8.25;;
83715;SDS011;73698;51.138;6.950;2024-01-11T05:33:35;21.83;;;9.07;;
83715;SDS011;73698;51.138;6.950;2024-01-11T05:36:00;18.98;;;7.60;;
83715;SDS011;73698;51.138;6.950;2024-01-11T05:38:26;21.25;;;10.00;;
83715;SDS011;73698;51.138;6.950;2024-01-11T05:40:51;21.20;;;7.75;;
83715;SDS011;73698;51.138;6.950;2024-01-11T05:43:17;9.85;;;6.30;;
83715;SDS011;73698;51.138;6.950;2024-01-11T05:45:42;17.92;;;6.82;;
83715;SDS011;73698;51.138;6.950;2024-01-11T05:48:09;16.85;;;8.95;;
83715;SDS011;73698;51.138;6.950;2024-01-11T05:50:35;15.75;;;7.80;;
83715;SDS011;73698;51.138;6.950;2024-01-11T05:53:01;23.63;;;9.07;;
83715;SDS011;73698;51.138;6.950;2024-01-11T05:55:26;27.27;;;8.85;;
83715;SDS011;73698;51.138;6.950;2024-01-11T05:57:52;30.02;;;8.30;;
83715;SDS011;73698;51.138;6.950;2024-01-11T06:00:17;16.90;;;6.55;;
83715;SDS011;73698;51.138;6.950;2024-01-11T06:02:43;15.88;;;6.47;;
83715;SDS011;73698;51.138;6.950;2024-01-11T06:05:08;18.77;;;8.13;;
83715;SDS011;73698;51.138;6.950;2024-01-11T06:07:34;17.38;;;7.25;;
83715;SDS011;73698;51.138;6.950;2024-01-11T06:10:00;22.55;;;8.13;;
83715;SDS011;73698;51.138;6.950;2024-01-11T06:12:30;23.43;;;9.10;;
83715;SDS011;73698;51.138;6.950;2024-01-11T06:14:56;21.77;;;8.25;;
83715;SDS011;73698;51.138;6.950;2024-01-11T06:17:22;20.85;;;8.13;;
83715;SDS011;73698;51.138;6.950;2024-01-11T06:19:49;20.50;;;8.50;;
83715;SDS011;73698;51.138;6.950;2024-01-11T06:22:15;12.90;;;6.35;;
83715;SDS011;73698;51.138;6.950;2024-01-11T06:24:40;17.30;;;8.07;;
83715;SDS011;73698;51.138;6.950;2024-01-11T06:27:06;21.92;;;8.35;;
83715;SDS011;73698;51.138;6.950;2024-01-11T06:29:31;18.27;;;8.23;;
83715;SDS011;73698;51.138;6.950;2024-01-11T06:31:56;20.00;;;7.88;;
83715;SDS011;73698;51.138;6.950;2024-01-11T06:34:25;22.23;;;8.82;;
83715;SDS011;73698;51.138;6.950;2024-01-11T06:36:54;18.92;;;10.15;;
83715;SDS011;73698;51.138;6.950;2024-01-11T06:39:20;23.27;;;9.43;;
83715;SDS011;73698;51.138;6.950;2024-01-11T06:41:46;19.80;;;6.93;;
83715;SDS011;73698;51.138;6.950;2024-01-11T06:44:12;16.52;;;8.40;;
83715;SDS011;73698;51.138;6.950;2024-01-11T06:46:37;19.30;;;8.45;;
83715;SDS011;73698;51.138;6.950;2024-01-11T06:49:05;21.42;;;7.82;;
83715;SDS011;73698;51.138;6.950;2024-01-11T06:51:31;14.85;;;7.57;;
83715;SDS011;73698;51.138;6.950;2024-01-11T06:53:56;18.58;;;8.35;;
83715;SDS011;73698;51.138;6.950;2024-01-11T06:56:22;20.15;;;7.53;;
83715;SDS011;73698;51.138;6.950;2024-01-11T06:58:47;20.50;;;9.88;;
83715;SDS011;73698;51.138;6.950;2024-01-11T07:01:13;21.23;;;8.73;;
83715;SDS011;73698;51.138;6.950;2024-01-11T07:03:39;14.75;;;7.18;;
83715;SDS011;73698;51.138;6.950;2024-01-11T07:06:05;22.10;;;7.22;;
83715;SDS011;73698;51.138;6.950;2024-01-11T07:08:32;17.60;;;8.88;;
83715;SDS011;73698;51.138;6.950;2024-01-11T07:11:00;23.27;;;9.38;;
83715;SDS011;73698;51.138;6.950;2024-01-11T07:13:27;20.48;;;9.20;;
83715;SDS011;73698;51.138;6.950;2024-01-11T07:15:53;15.73;;;11.05;;
83715;SDS011;73698;51.138;6.950;2024-01-11T07:18:20;18.98;;;9.13;;
83715;SDS011;73698;51.138;6.950;2024-01-11T07:20:46;19.38;;;9.55;;
83715;SDS011;73698;51.138;6.950;2024-01-11T07:23:12;22.00;;;9.18;;
83715;SDS011;73698;51.138;6.950;2024-01-11T07:25:38;23.67;;;10.35;;
83715;SDS011;73698;51.138;6.950;2024-01-11T07:28:04;15.82;;;9.15;;
83715;SDS011;73698;51.138;6.950;2024-01-11T07:30:30;25.30;;;10.60;;
83715;SDS011;73698;51.138;6.950;2024-01-11T07:32:58;18.50;;;9.77;;
83715;SDS011;73698;51.138;6.950;2024-01-11T07:35:24;19.90;;;10.07;;
83715;SDS011;73698;51.138;6.950;2024-01-11T07:37:49;22.70;;;8.40;;
83715;SDS011;73698;51.138;6.950;2024-01-11T07:40:15;17.70;;;8.07;;
83715;SDS011;73698;51.138;6.950;2024-01-11T07:42:41;32.42;;;9.40;;
83715;SDS011;73698;51.138;6.950;2024-01-11T07:45:08;11.50;;;6.72;;
83715;SDS011;73698;51.138;6.950;2024-01-11T07:47:35;10.98;;;6.70;;
83715;SDS011;73698;51.138;6.950;2024-01-11T07:50:03;18.33;;;6.93;;
83715;SDS011;73698;51.138;6.950;2024-01-11T07:52:31;19.40;;;7.20;;
83715;SDS011;73698;51.138;6.950;2024-01-11T07:54:57;14.23;;;6.65;;
83715;SDS011;73698;51.138;6.950;2024-01-11T07:57:25;20.60;;;8.93;;
83715;SDS011;73698;51.138;6.950;2024-01-11T07:59:50;23.00;;;11.20;;
83715;SDS011;73698;51.138;6.950;2024-01-11T08:02:15;14.85;;;7.20;;
83715;SDS011;73698;51.138;6.950;2024-01-11T08:04:41;17.05;;;6.85;;
83715;SDS011;73698;51.138;6.950;2024-01-11T08:07:06;20.50;;;8.63;;
83715;SDS011;73698;51.138;6.950;2024-01-11T08:09:32;15.30;;;5.68;;
83715;SDS011;73698;51.138;6.950;2024-01-11T08:11:57;28.88;;;9.98;;
83715;SDS011;73698;51.138;6.950;2024-01-11T08:14:23;21.17;;;8.77;;
83715;SDS011;73698;51.138;6.950;2024-01-11T08:16:49;26.90;;;8.45;;
83715;SDS011;73698;51.138;6.950;2024-01-11T08:19:15;15.60;;;7.97;;
83715;SDS011;73698;51.138;6.950;2024-01-11T08:21:40;24.00;;;10.05;;
83715;SDS011;73698;51.138;6.950;2024-01-11T08:24:08;21.80;;;10.02;;
83715;SDS011;73698;51.138;6.950;2024-01-11T08:26:34;18.67;;;8.77;;
83715;SDS011;73698;51.138;6.950;2024-01-11T08:28:59;19.05;;;7.95;;
83715;SDS011;73698;51.138;6.950;2024-01-11T08:31:25;25.02;;;10.23;;
83715;SDS011;73698;51.138;6.950;2024-01-11T08:33:50;22.08;;;9.70;;
83715;SDS011;73698;51.138;6.950;2024-01-11T08:36:16;24.65;;;11.68;;
83715;SDS011;73698;51.138;6.950;2024-01-11T08:38:41;20.15;;;9.55;;
83715;SDS011;73698;51.138;6.950;2024-01-11T08:41:07;26.30;;;10.93;;
83715;SDS011;73698;51.138;6.950;2024-01-11T08:43:32;24.88;;;10.15;;
83715;SDS011;73698;51.138;6.950;2024-01-11T08:45:58;21.85;;;10.70;;
83715;SDS011;73698;51.138;6.950;2024-01-11T08:48:24;19.48;;;10.15;;
83715;SDS011;73698;51.138;6.950;2024-01-11T08:50:49;25.27;;;9.52;;
83715;SDS011;73698;51.138;6.950;2024-01-11T08:53:15;23.35;;;9.85;;
83715;SDS011;73698;51.138;6.950;2024-01-11T08:55:41;27.98;;;11.45;;
83715;SDS011;73698;51.138;6.950;2024-01-11T08:58:07;26.15;;;12.48;;
83715;SDS011;73698;51.138;6.950;2024-01-11T09:00:32;29.00;;;11.10;;
83715;SDS011;73698;51.138;6.950;2024-01-11T09:02:57;27.90;;;12.95;;
83715;SDS011;73698;51.138;6.950;2024-01-11T09:05:23;33.50;;;15.30;;
83715;SDS011;73698;51.138;6.950;2024-01-11T09:07:48;37.30;;;13.48;;
83715;SDS011;73698;51.138;6.950;2024-01-11T09:10:14;30.52;;;12.85;;
83715;SDS011;73698;51.138;6.950;2024-01-11T09:12:39;32.38;;;14.02;;
83715;SDS011;73698;51.138;6.950;2024-01-11T09:15:05;28.00;;;12.70;;
83715;SDS011;73698;51.138;6.950;2024-01-11T09:17:31;23.30;;;12.55;;
83715;SDS011;73698;51.138;6.950;2024-01-11T09:19:57;32.70;;;13.40;;
83715;SDS011;73698;51.138;6.950;2024-01-11T09:22:22;29.40;;;12.65;;
83715;SDS011;73698;51.138;6.950;2024-01-11T09:24:48;30.15;;;12.63;;
83715;SDS011;73698;51.138;6.950;2024-01-11T09:27:16;26.73;;;13.18;;
83715;SDS011;73698;51.138;6.950;2024-01-11T09:32:10;32.53;;;13.23;;
83715;SDS011;73698;51.138;6.950;2024-01-11T09:34:36;31.88;;;14.82;;
83715;SDS011;73698;51.138;6.950;2024-01-11T09:37:01;24.52;;;12.55;;
83715;SDS011;73698;51.138;6.950;2024-01-11T09:39:26;42.15;;;14.98;;
83715;SDS011;73698;51.138;6.950;2024-01-11T09:41:59;25.45;;;11.32;;
83715;SDS011;73698;51.138;6.950;2024-01-11T09:44:37;31.45;;;12.82;;
83715;SDS011;73698;51.138;6.950;2024-01-11T09:47:03;32.35;;;13.73;;
83715;SDS011;73698;51.138;6.950;2024-01-11T09:49:31;33.75;;;14.73;;
83715;SDS011;73698;51.138;6.950;2024-01-11T09:51:58;39.63;;;14.85;;
83715;SDS011;73698;51.138;6.950;2024-01-11T09:54:26;33.83;;;14.85;;
83715;SDS011;73698;51.138;6.950;2024-01-11T09:56:54;44.05;;;15.48;;
83715;SDS011;73698;51.138;6.950;2024-01-11T09:59:24;33.97;;;15.07;;
83715;SDS011;73698;51.138;6.950;2024-01-11T10:01:50;47.72;;;16.65;;
83715;SDS011;73698;51.138;6.950;2024-01-11T10:04:16;34.35;;;14.43;;
83715;SDS011;73698;51.138;6.950;2024-01-11T10:06:42;35.13;;;15.32;;
83715;SDS011;73698;51.138;6.950;2024-01-11T10:09:08;36.00;;;15.80;;
83715;SDS011;73698;51.138;6.950;2024-01-11T10:11:34;36.45;;;16.15;;
83715;SDS011;73698;51.138;6.950;2024-01-11T10:14:00;41.30;;;17.20;;
83715;SDS011;73698;51.138;6.950;2024-01-11T10:16:29;40.25;;;16.27;;
83715;SDS011;73698;51.138;6.950;2024-01-11T10:18:55;31.33;;;15.05;;
83715;SDS011;73698;51.138;6.950;2024-01-11T10:21:23;38.28;;;15.98;;
83715;SDS011;73698;51.138;6.950;2024-01-11T10:23:49;36.80;;;17.08;;
83715;SDS011;73698;51.138;6.950;2024-01-11T10:26:16;39.42;;;16.90;;
83715;SDS011;73698;51.138;6.950;2024-01-11T10:28:44;33.33;;;16.33;;
83715;SDS011;73698;51.138;6.950;2024-01-11T10:31:10;33.92;;;16.25;;
83715;SDS011;73698;51.138;6.950;2024-01-11T10:33:35;39.22;;;17.33;;
83715;SDS011;73698;51.138;6.950;2024-01-11T10:36:01;36.55;;;15.52;;
83715;SDS011;73698;51.138;6.950;2024-01-11T10:38:26;38.53;;;16.63;;
83715;SDS011;73698;51.138;6.950;2024-01-11T10:40:55;34.38;;;14.95;;
83715;SDS011;73698;51.138;6.950;2024-01-11T10:43:27;40.13;;;17.77;;
83715;SDS011;73698;51.138;6.950;2024-01-11T10:45:56;39.75;;;16.38;;
83715;SDS011;73698;51.138;6.950;2024-01-11T10:48:26;42.30;;;17.40;;
83715;SDS011;73698;51.138;6.950;2024-01-11T10:50:57;34.00;;;15.60;;
83715;SDS011;73698;51.138;6.950;2024-01-11T10:53:31;38.88;;;16.17;;
83715;SDS011;73698;51.138;6.950;2024-01-11T10:56:07;33.70;;;14.25;;
83715;SDS011;73698;51.138;6.950;2024-01-11T10:58:34;35.42;;;15.80;;
83715;SDS011;73698;51.138;6.950;2024-01-11T11:01:00;38.60;;;16.10;;
83715;SDS011;73698;51.138;6.950;2024-01-11T11:03:27;27.25;;;13.75;;
83715;SDS011;73698;51.138;6.950;2024-01-11T11:05:56;37.33;;;16.05;;
83715;SDS011;73698;51.138;6.950;2024-01-11T11:08:23;41.97;;;17.58;;
83715;SDS011;73698;51.138;6.950;2024-01-11T11:10:51;32.97;;;14.55;;
83715;SDS011;73698;51.138;6.950;2024-01-11T11:13:21;33.58;;;15.48;;
83715;SDS011;73698;51.138;6.950;2024-01-11T11:15:47;39.70;;;15.65;;
83715;SDS011;73698;51.138;6.950;2024-01-11T11:18:14;32.72;;;16.95;;
83715;SDS011;73698;51.138;6.950;2024-01-11T11:20:40;42.05;;;17.85;;
83715;SDS011;73698;51.138;6.950;2024-01-11T11:23:09;38.65;;;15.70;;
83715;SDS011;73698;51.138;6.950;2024-01-11T11:25:36;36.78;;;16.02;;
83715;SDS011;73698;51.138;6.950;2024-01-11T11:28:02;39.28;;;16.42;;
83715;SDS011;73698;51.138;6.950;2024-01-11T11:30:31;34.30;;;14.38;;
83715;SDS011;73698;51.138;6.950;2024-01-11T11:32:58;41.92;;;16.83;;
83715;SDS011;73698;51.138;6.950;2024-01-11T11:35:32;33.08;;;15.35;;
83715;SDS011;73698;51.138;6.950;2024-01-11T11:38:01;39.42;;;15.43;;
83715;SDS011;73698;51.138;6.950;2024-01-11T11:40:37;37.30;;;15.50;;
83715;SDS011;73698;51.138;6.950;2024-01-11T11:43:08;29.73;;;15.13;;
83715;SDS011;73698;51.138;6.950;2024-01-11T11:45:34;37.47;;;17.50;;
83715;SDS011;73698;51.138;6.950;2024-01-11T11:48:00;40.97;;;16.05;;
83715;SDS011;73698;51.138;6.950;2024-01-11T11:50:25;34.63;;;14.65;;
83715;SDS011;73698;51.138;6.950;2024-01-11T11:52:55;35.40;;;15.18;;
83715;SDS011;73698;51.138;6.950;2024-01-11T11:55:22;40.83;;;16.40;;
83715;SDS011;73698;51.138;6.950;2024-01-11T11:57:50;37.17;;;16.45;;
83715;SDS011;73698;51.138;6.950;2024-01-11T12:00:17;35.03;;;15.95;;
83715;SDS011;73698;51.138;6.950;2024-01-11T12:02:43;43.53;;;16.52;;
83715;SDS011;73698;51.138;6.950;2024-01-11T12:05:08;42.78;;;17.60;;
83715;SDS011;73698;51.138;6.950;2024-01-11T12:07:34;42.13;;;17.70;;
83715;SDS011;73698;51.138;6.950;2024-01-11T12:09:59;38.20;;;16.48;;
83715;SDS011;73698;51.138;6.950;2024-01-11T12:12:25;40.65;;;16.63;;
83715;SDS011;73698;51.138;6.950;2024-01-11T12:14:51;46.17;;;18.23;;
83715;SDS011;73698;51.138;6.950;2024-01-11T12:17:18;29.50;;;14.10;;
83715;SDS011;73698;51.138;6.950;2024-01-11T12:19:44;35.15;;;16.35;;
83715;SDS011;73698;51.138;6.950;2024-01-11T12:22:09;37.08;;;17.02;;
83715;SDS011;73698;51.138;6.950;2024-01-11T12:24:34;44.97;;;17.67;;
83715;SDS011;73698;51.138;6.950;2024-01-11T12:27:00;40.13;;;17.13;;
83715;SDS011;73698;51.138;6.950;2024-01-11T12:29:28;40.90;;;14.77;;
83715;SDS011;73698;51.138;6.950;2024-01-11T12:31:55;39.08;;;15.63;;
83715;SDS011;73698;51.138;6.950;2024-01-11T12:34:24;42.38;;;16.00;;
83715;SDS011;73698;51.138;6.950;2024-01-11T12:36:51;30.50;;;16.08;;
83715;SDS011;73698;51.138;6.950;2024-01-11T12:39:20;38.78;;;16.05;;
83715;SDS011;73698;51.138;6.950;2024-01-11T12:41:50;42.67;;;17.65;;
83715;SDS011;73698;51.138;6.950;2024-01-11T12:44:17;37.08;;;15.73;;
83715;SDS011;73698;51.138;6.950;2024-01-11T12:46:44;39.80;;;15.32;;
83715;SDS011;73698;51.138;6.950;2024-01-11T12:49:12;35.17;;;14.88;;
83715;SDS011;73698;51.138;6.950;2024-01-11T12:51:37;40.72;;;16.40;;
83715;SDS011;73698;51.138;6.950;2024-01-11T12:54:04;34.88;;;14.43;;
83715;SDS011;73698;51.138;6.950;2024-01-11T13:06:40;33.67;;;14.48;;
83715;SDS011;73698;51.138;6.950;2024-01-11T13:09:06;36.53;;;14.95;;
83715;SDS011;73698;51.138;6.950;2024-01-11T13:11:33;37.53;;;16.40;;
83715;SDS011;73698;51.138;6.950;2024-01-11T13:13:58;38.55;;;15.60;;
83715;SDS011;73698;51.138;6.950;2024-01-11T13:16:26;39.25;;;15.20;;
83715;SDS011;73698;51.138;6.950;2024-01-11T13:18:51;35.42;;;15.68;;
83715;SDS011;73698;51.138;6.950;2024-01-11T13:21:17;36.22;;;16.52;;
83715;SDS011;73698;51.138;6.950;2024-01-11T13:23:42;38.95;;;16.48;;
83715;SDS011;73698;51.138;6.950;2024-01-11T13:26:08;36.10;;;15.80;;
83715;SDS011;73698;51.138;6.950;2024-01-11T13:28:33;34.08;;;15.68;;
83715;SDS011;73698;51.138;6.950;2024-01-11T13:30:59;32.90;;;14.15;;
83715;SDS011;73698;51.138;6.950;2024-01-11T13:33:26;28.90;;;13.38;;
83715;SDS011;73698;51.138;6.950;2024-01-11T13:35:52;29.55;;;13.50;;
83715;SDS011;73698;51.138;6.950;2024-01-11T13:38:17;27.88;;;12.63;;
83715;SDS011;73698;51.138;6.950;2024-01-11T13:40:43;42.10;;;15.27;;
83715;SDS011;73698;51.138;6.950;2024-01-11T13:43:08;42.10;;;17.60;;
83715;SDS011;73698;51.138;6.950;2024-01-11T13:45:34;34.85;;;15.38;;
83715;SDS011;73698;51.138;6.950;2024-01-11T13:48:04;36.00;;;14.45;;
83715;SDS011;73698;51.138;6.950;2024-01-11T13:50:30;33.50;;;14.50;;
83715;SDS011;73698;51.138;6.950;2024-01-11T13:52:56;36.13;;;14.48;;
83715;SDS011;73698;51.138;6.950;2024-01-11T13:55:21;35.05;;;15.02;;
83715;SDS011;73698;51.138;6.950;2024-01-11T13:57:48;41.05;;;15.15;;
83715;SDS011;73698;51.138;6.950;2024-01-11T14:00:14;31.92;;;14.75;;
83715;SDS011;73698;51.138;6.950;2024-01-11T14:02:42;41.90;;;17.05;;
83715;SDS011;73698;51.138;6.950;2024-01-11T14:05:08;35.08;;;15.15;;
83715;SDS011;73698;51.138;6.950;2024-01-11T14:07:39;29.15;;;13.25;;
83715;SDS011;73698;51.138;6.950;2024-01-11T14:10:05;33.08;;;14.38;;
83715;SDS011;73698;51.138;6.950;2024-01-11T14:12:33;33.47;;;13.60;;
83715;SDS011;73698;51.138;6.950;2024-01-11T14:14:59;26.83;;;12.75;;
83715;SDS011;73698;51.138;6.950;2024-01-11T14:17:25;26.17;;;12.30;;
83715;SDS011;73698;51.138;6.950;2024-01-11T14:19:51;20.92;;;9.20;;
83715;SDS011;73698;51.138;6.950;2024-01-11T14:22:16;18.45;;;8.52;;
83715;SDS011;73698;51.138;6.950;2024-01-11T14:24:42;24.00;;;9.93;;
83715;SDS011;73698;51.138;6.950;2024-01-11T14:27:10;18.40;;;9.38;;
83715;SDS011;73698;51.138;6.950;2024-01-11T14:29:36;23.80;;;9.68;;
83715;SDS011;73698;51.138;6.950;2024-01-11T14:32:01;24.08;;;9.73;;
83715;SDS011;73698;51.138;6.950;2024-01-11T14:34:27;18.20;;;9.32;;
83715;SDS011;73698;51.138;6.950;2024-01-11T14:36:52;25.98;;;10.40;;
83715;SDS011;73698;51.138;6.950;2024-01-11T14:39:17;24.83;;;11.25;;
83715;SDS011;73698;51.138;6.950;2024-01-11T14:41:43;31.40;;;12.75;;
83715;SDS011;73698;51.138;6.950;2024-01-11T14:44:09;22.70;;;9.95;;